Etusivu
METAR-TAF:

METAR-TAF

Lentoasemat :

Tongatapu, Tonga

Leveyspiiri: 21-14S, Pituuspiiri: 175-09W, korkeus merenpinnasta: 38 m

Tämänhetkinen sää

Tämä raportti tehtiin 31 minuuttia sitten, kello 23.00 UTC
Tuuli 8 kn idästä
Lämpötila 26°C
Kosteus 70%
Ilmanpaine 1016 hPa
Näkyvyys 10 km tai enemmän
Hajanaisia pilviä 1700 ft:n korkeudessa
Hajonneita pilviä 10000 ft:n korkeudessa

METAR: NFTF 252300Z 10008KT 9999 SCT017 BKN100 26/20 Q1016

Aika: 12:31 (23:31 UTC)

Sääennuste

Tämä raportti tehtiin 6 tuntia ja 27 minuuttia sitten, kello 17.04 UTC
Ennuste voimassa 25. päivästä klo 18 UTC - 26. päivään klo 18 UTC
Tuuli 5 kn etelästä/kaakosta
Näkyvyys 10 km tai enemmän
Hajanaisia pilviä 1700 ft:n korkeudessa

TAF: NFTF 251704Z 2518/2618 15005KT 9999 SCT017

Säähavainnot ja -ennusteet yli 4000 lentoasemalta (METAR- ja TAF-raportit).

Käytössä olevat sääasemat on merkitty karttaan keltaisilla ja punaisilla pisteillä.

Aseta hiiri pisteen päälle nähdäksesi sääaseman nimen.

Klikkaa sitten nähdäksesi säähavainnot ja -ennusteet.

Kartan vaihtaminen: klikkaa mustalla rastilla varustettuja vihreitä pisteitä, niin voit zoomata sisään; viivalla varustettua vihreää pistettä, niin voit zoomata ulos tai vihreitä nuolia, niin pääset viereisille kartoille.


METAR-TAF: